Lincoln, Iowa
Current Conditions -  °F | °C
As of 8:19 PM on Saturday 22 Nov 2014 (Local Time) from KMIW Reporting Station
Overcast Overcast  
Wind Chill: 54°   Ceiling: 1000
Heat Index: 54°   Visibility: 7mi
Dew Point: 52°   Wind: 16mph
Humidity: 93%   Direction: 180°S
Pressure: 29.66"   Gusts: NA
Location:  42.26°N, 92.69°W
Report Text: KMIW 230219Z AUTO 18014KT 7SM OVC010 12/11 A2966 RMK AO2 CIG 007V013 T01220111
Loading
Personal Weather Stations






























Interactive Weather Map New forecast layout! Learn more

10-Day Weather Forecast

Advertisements
Track Severe Weather on mobile